Time;durP1;ratioP1;P1;durP2;ratioP2;P2;SDS_P1;SDS_P2;PMS_P1;PMS_P2;Temp;Humidity;BMP_temperature;BMP_pressure;BME280_temperature;BME280_humidity;BME280_pressure;Samples;Min_cycle;Max_cycle;Signal;HPM_P1;HPM_P2
2020/12/12 00:01:58;;;;;;;28.07;12.43;;;3.50;99.90;;;;;;4191730;28;20482;-57
2020/12/12 00:04:00;;;;;;;26.60;11.80;;;3.50;99.90;;;;;;4193751;28;20466;-57
2020/12/12 00:06:01;;;;;;;25.00;11.13;;;3.50;99.90;;;;;;4190986;28;20468;-57
2020/12/12 00:08:04;;;;;;;26.50;11.30;;;3.50;99.90;;;;;;4191590;28;20549;-57
2020/12/12 00:10:05;;;;;;;25.00;11.20;;;3.50;99.90;;;;;;4189243;28;20501;-57
2020/12/12 00:12:08;;;;;;;26.03;11.57;;;3.50;99.90;;;;;;4187104;28;20487;-57
2020/12/12 00:14:09;;;;;;;23.80;11.80;;;3.50;99.90;;;;;;4189564;28;20466;-57
2020/12/12 00:16:10;;;;;;;26.40;11.33;;;3.50;99.90;;;;;;4193576;28;20487;-56
2020/12/12 00:18:12;;;;;;;23.27;11.50;;;3.50;99.90;;;;;;4195927;28;21140;-57
2020/12/12 00:20:13;;;;;;;23.53;11.23;;;3.60;99.90;;;;;;4194064;28;20477;-57
2020/12/12 00:22:14;;;;;;;24.07;11.37;;;3.60;99.90;;;;;;4192278;28;20471;-57
2020/12/12 00:24:17;;;;;;;23.87;11.57;;;3.60;99.90;;;;;;4190245;28;20485;-57
2020/12/12 00:26:19;;;;;;;25.07;11.53;;;3.60;99.90;;;;;;4186847;28;20475;-57
2020/12/12 00:28:21;;;;;;;25.10;11.60;;;3.60;99.90;;;;;;4186746;28;20469;-57
2020/12/12 00:30:22;;;;;;;25.17;11.50;;;3.60;99.90;;;;;;4193736;28;22499;-57
2020/12/12 00:32:23;;;;;;;24.27;11.07;;;3.60;99.90;;;;;;4193001;28;20462;-57
2020/12/12 00:34:26;;;;;;;27.13;12.23;;;3.60;99.90;;;;;;4192077;28;20506;-57
2020/12/12 00:36:27;;;;;;;25.37;11.47;;;3.60;99.90;;;;;;4187634;28;20483;-57
2020/12/12 00:38:28;;;;;;;24.87;11.33;;;3.60;99.90;;;;;;4188035;28;21048;-57
2020/12/12 00:40:30;;;;;;;25.50;12.07;;;3.70;99.90;;;;;;4185770;28;21022;-57
2020/12/12 00:42:32;;;;;;;27.43;11.60;;;3.60;99.90;;;;;;4187834;28;20481;-58
2020/12/12 00:44:33;;;;;;;27.60;12.37;;;3.60;99.90;;;;;;4190973;28;20471;-57
2020/12/12 00:46:35;;;;;;;24.67;11.50;;;3.60;99.90;;;;;;4194713;28;20480;-57
2020/12/12 00:48:36;;;;;;;25.43;12.30;;;3.70;99.90;;;;;;4190158;28;20488;-57
2020/12/12 00:50:44;;;;;;;26.43;11.90;;;3.60;99.90;;;;;;4191917;28;20474;-57
2020/12/12 00:52:45;;;;;;;24.57;11.60;;;3.70;99.90;;;;;;4191225;28;20937;-57
2020/12/12 00:54:47;;;;;;;29.17;12.53;;;3.70;99.90;;;;;;4189482;28;20484;-57
2020/12/12 00:56:49;;;;;;;26.57;11.10;;;3.70;99.90;;;;;;4187920;28;20463;-57
2020/12/12 00:58:51;;;;;;;26.90;11.40;;;3.70;99.90;;;;;;4162817;28;645281;-56
2020/12/12 01:00:52;;;;;;;23.20;11.17;;;3.70;99.90;;;;;;4186091;28;20943;-57
2020/12/12 01:02:53;;;;;;;24.43;11.10;;;3.70;99.90;;;;;;4188138;28;20466;-57
2020/12/12 01:04:54;;;;;;;22.20;11.00;;;3.80;99.90;;;;;;4188515;28;20476;-57
2020/12/12 01:06:56;;;;;;;22.77;11.10;;;3.80;99.90;;;;;;4192756;28;20565;-57
2020/12/12 01:08:57;;;;;;;28.57;12.20;;;3.80;99.90;;;;;;4191662;28;20491;-57
2020/12/12 01:10:58;;;;;;;24.10;11.03;;;3.80;99.90;;;;;;4188756;28;20469;-57
2020/12/12 01:13:01;;;;;;;25.87;10.70;;;3.80;99.90;;;;;;4190611;28;20474;-57
2020/12/12 01:15:02;;;;;;;24.37;11.50;;;3.80;99.90;;;;;;4190879;28;20487;-57
2020/12/12 01:17:03;;;;;;;23.33;10.43;;;3.80;99.90;;;;;;4189714;28;20816;-60
2020/12/12 01:19:05;;;;;;;25.47;11.83;;;3.80;99.90;;;;;;4193870;28;20478;-57
2020/12/12 01:21:06;;;;;;;23.67;11.03;;;3.80;99.90;;;;;;4188000;28;20476;-57
2020/12/12 01:23:08;;;;;;;22.90;11.47;;;3.80;99.90;;;;;;4188065;28;20571;-57
2020/12/12 01:25:09;;;;;;;24.07;11.73;;;3.80;99.90;;;;;;4189123;28;20984;-57
2020/12/12 01:27:10;;;;;;;25.50;11.53;;;3.80;99.90;;;;;;4190339;28;20483;-57
2020/12/12 01:29:13;;;;;;;25.53;11.37;;;3.80;99.90;;;;;;4188934;28;20487;-58
2020/12/12 01:31:14;;;;;;;27.27;12.50;;;3.80;99.90;;;;;;4188636;28;20508;-57
2020/12/12 01:33:16;;;;;;;23.43;11.43;;;3.80;99.90;;;;;;4191037;28;22267;-57
2020/12/12 01:35:17;;;;;;;26.67;11.70;;;3.80;99.90;;;;;;4193375;28;20470;-57
2020/12/12 01:37:19;;;;;;;26.40;12.47;;;3.80;99.90;;;;;;4191778;28;20470;-56
2020/12/12 01:39:20;;;;;;;23.30;10.57;;;3.80;99.90;;;;;;4191817;28;20801;-57
2020/12/12 01:41:22;;;;;;;20.60;10.03;;;3.80;99.90;;;;;;4190538;28;20982;-57
2020/12/12 01:43:23;;;;;;;24.77;11.30;;;3.80;99.90;;;;;;4188406;28;20821;-58
2020/12/12 01:45:25;;;;;;;21.73;10.27;;;3.90;99.90;;;;;;4186191;28;20481;-62
2020/12/12 01:47:29;;;;;;;26.47;11.50;;;3.80;99.90;;;;;;4187463;28;20497;-58
2020/12/12 01:49:30;;;;;;;20.03;9.83;;;3.90;99.90;;;;;;4193626;28;21206;-59
2020/12/12 01:51:33;;;;;;;23.27;10.10;;;3.90;99.90;;;;;;4189938;28;20470;-58
2020/12/12 01:53:35;;;;;;;23.53;11.33;;;3.90;99.90;;;;;;4190289;28;20962;-59
2020/12/12 01:55:37;;;;;;;29.60;12.40;;;3.90;99.90;;;;;;4188446;28;20510;-58
2020/12/12 01:57:41;;;;;;;25.47;11.90;;;3.80;99.90;;;;;;4189337;28;20486;-59
2020/12/12 01:59:43;;;;;;;26.17;12.27;;;3.80;99.90;;;;;;4189653;28;20989;-59
2020/12/12 02:01:47;;;;;;;28.20;13.10;;;3.80;99.90;;;;;;4189310;28;20597;-58
2020/12/12 02:03:50;;;;;;;29.23;12.77;;;3.80;99.90;;;;;;4188834;28;20782;-58
2020/12/12 02:05:57;;;;;;;31.37;13.07;;;3.80;99.90;;;;;;4189376;28;20487;-58
2020/12/12 02:07:58;;;;;;;27.00;11.87;;;3.80;99.90;;;;;;4190129;28;20465;-58
2020/12/12 02:10:00;;;;;;;26.17;12.77;;;3.80;99.90;;;;;;4190775;28;20982;-58
2020/12/12 02:12:01;;;;;;;27.73;11.93;;;3.80;99.90;;;;;;4189642;28;20479;-58
2020/12/12 02:14:03;;;;;;;27.33;12.67;;;3.80;99.90;;;;;;4190545;28;21207;-58
2020/12/12 02:16:11;;;;;;;27.53;11.90;;;3.90;99.90;;;;;;4190192;28;20469;-56
2020/12/12 02:18:19;;;;;;;28.60;12.73;;;3.80;99.90;;;;;;4190682;28;21026;-61
2020/12/12 02:20:20;;;;;;;25.63;11.37;;;3.90;99.90;;;;;;4190061;28;20512;-60
2020/12/12 02:22:22;;;;;;;22.60;10.17;;;3.90;99.90;;;;;;4189406;28;20494;-63
2020/12/12 02:24:24;;;;;;;20.70;9.93;;;3.90;99.90;;;;;;4188632;28;22424;-61
2020/12/12 02:26:25;;;;;;;20.93;9.60;;;3.90;99.90;;;;;;4188996;28;20469;-58
2020/12/12 02:28:31;;;;;;;23.00;9.87;;;3.90;99.90;;;;;;4187764;28;22471;-62
2020/12/12 02:30:32;;;;;;;21.40;9.87;;;3.90;99.90;;;;;;4189436;28;22392;-58
2020/12/12 02:32:35;;;;;;;18.80;9.37;;;3.90;99.90;;;;;;4187492;28;20488;-58
2020/12/12 02:34:36;;;;;;;20.07;9.37;;;3.90;99.90;;;;;;4190060;28;20467;-60
2020/12/12 02:36:38;;;;;;;21.73;9.70;;;4.00;99.90;;;;;;4190373;28;20475;-58
2020/12/12 02:38:43;;;;;;;24.97;10.93;;;4.00;99.90;;;;;;4189450;28;20479;-56
2020/12/12 02:40:44;;;;;;;23.77;11.00;;;3.90;99.90;;;;;;4190360;28;21264;-58
2020/12/12 02:42:45;;;;;;;23.63;10.90;;;3.90;99.90;;;;;;4189379;28;20474;-56
2020/12/12 02:44:51;;;;;;;26.03;11.70;;;3.90;99.90;;;;;;4189827;28;21397;-58
2020/12/12 02:46:52;;;;;;;26.13;11.73;;;3.90;99.90;;;;;;4189043;28;20485;-58
2020/12/12 02:48:53;;;;;;;25.23;11.47;;;3.90;99.90;;;;;;4189674;28;20500;-58
2020/12/12 02:50:55;;;;;;;23.70;11.07;;;3.90;99.90;;;;;;4190371;28;20464;-58
2020/12/12 02:52:56;;;;;;;26.20;11.20;;;3.90;99.90;;;;;;4187773;28;21038;-56
2020/12/12 02:54:58;;;;;;;23.03;10.70;;;3.90;99.90;;;;;;4190275;28;20482;-58
2020/12/12 02:57:00;;;;;;;24.33;10.73;;;3.90;99.90;;;;;;4193797;28;20477;-56
2020/12/12 02:59:01;;;;;;;23.57;11.10;;;3.90;99.90;;;;;;4192705;28;20470;-57
2020/12/12 03:01:03;;;;;;;24.57;10.77;;;3.90;99.90;;;;;;4188739;28;20469;-58
2020/12/12 03:03:04;;;;;;;23.60;10.53;;;3.90;99.90;;;;;;4187992;28;20475;-58
2020/12/12 03:05:07;;;;;;;23.40;10.53;;;3.90;99.90;;;;;;4188748;28;20502;-56
2020/12/12 03:07:08;;;;;;;23.17;10.80;;;3.90;99.90;;;;;;4188160;28;20483;-56
2020/12/12 03:09:10;;;;;;;21.13;9.77;;;3.90;99.90;;;;;;4191181;28;20489;-58
2020/12/12 03:11:13;;;;;;;20.90;9.37;;;3.90;99.90;;;;;;4191762;28;21170;-58
2020/12/12 03:13:14;;;;;;;21.67;9.83;;;3.90;99.90;;;;;;4187745;28;20480;-58
2020/12/12 03:15:16;;;;;;;20.67;9.60;;;3.90;99.90;;;;;;4189663;28;20977;-58
2020/12/12 03:17:17;;;;;;;20.73;9.10;;;3.90;99.90;;;;;;4187990;28;20991;-58
2020/12/12 03:19:18;;;;;;;19.73;9.10;;;4.00;99.90;;;;;;4185418;28;20475;-58
2020/12/12 03:21:20;;;;;;;20.77;9.30;;;3.90;99.90;;;;;;4187927;28;20490;-58
2020/12/12 03:23:21;;;;;;;19.80;9.80;;;3.90;99.90;;;;;;4186750;28;20487;-58
2020/12/12 03:25:22;;;;;;;19.20;8.73;;;3.90;99.90;;;;;;4190464;28;20471;-58
2020/12/12 03:27:25;;;;;;;20.63;9.70;;;4.00;99.90;;;;;;4189955;28;20476;-58
2020/12/12 03:29:26;;;;;;;19.27;9.00;;;4.00;99.90;;;;;;4188633;28;20484;-58
2020/12/12 03:31:27;;;;;;;19.13;9.03;;;4.00;99.90;;;;;;4187921;28;20476;-58
2020/12/12 03:33:29;;;;;;;17.23;8.27;;;4.00;99.90;;;;;;4186083;28;21328;-56
2020/12/12 03:35:31;;;;;;;18.90;9.27;;;4.00;99.90;;;;;;4188649;28;20470;-58
2020/12/12 03:37:33;;;;;;;18.10;8.37;;;4.00;99.90;;;;;;4191731;28;20477;-58
2020/12/12 03:39:34;;;;;;;16.70;8.10;;;4.00;99.90;;;;;;4192989;28;20487;-58
2020/12/12 03:41:35;;;;;;;18.00;8.00;;;4.10;99.90;;;;;;4190035;28;20486;-58
2020/12/12 03:43:38;;;;;;;20.10;8.70;;;4.10;99.90;;;;;;4187426;28;20562;-58
2020/12/12 03:45:39;;;;;;;19.60;8.90;;;4.10;99.90;;;;;;4187104;28;20484;-58
2020/12/12 03:47:40;;;;;;;16.50;7.97;;;4.10;99.90;;;;;;4192305;28;20787;-58
2020/12/12 03:49:41;;;;;;;18.63;8.73;;;4.10;99.90;;;;;;4192059;28;20490;-56
2020/12/12 03:51:43;;;;;;;18.73;8.27;;;4.10;99.90;;;;;;4192003;28;20467;-58
2020/12/12 03:53:44;;;;;;;18.10;9.13;;;4.10;99.90;;;;;;4191516;28;20467;-58
2020/12/12 03:55:46;;;;;;;22.20;9.17;;;4.10;99.90;;;;;;4191110;28;20472;-58
2020/12/12 03:57:47;;;;;;;20.17;9.67;;;4.10;99.90;;;;;;4189235;28;20472;-58
2020/12/12 03:59:49;;;;;;;19.53;8.83;;;4.10;99.90;;;;;;4189494;28;20502;-57
2020/12/12 04:01:50;;;;;;;22.10;9.40;;;4.10;99.90;;;;;;4192064;28;20945;-58
2020/12/12 04:03:52;;;;;;;18.37;8.70;;;4.10;99.90;;;;;;4190431;28;20477;-58
2020/12/12 04:05:53;;;;;;;21.57;9.00;;;4.10;99.90;;;;;;4190979;28;20481;-58
2020/12/12 04:07:54;;;;;;;18.53;8.27;;;4.10;99.90;;;;;;4191714;28;20471;-55
2020/12/12 04:09:56;;;;;;;19.07;9.30;;;4.10;99.90;;;;;;4190002;28;20494;-58
2020/12/12 04:11:57;;;;;;;18.47;8.30;;;4.10;99.90;;;;;;4189505;28;20471;-58
2020/12/12 04:13:58;;;;;;;18.30;8.43;;;4.10;99.90;;;;;;4191736;28;20483;-58
2020/12/12 04:16:00;;;;;;;21.27;9.03;;;4.10;99.90;;;;;;4191629;28;20476;-58
2020/12/12 04:18:02;;;;;;;21.13;8.63;;;4.10;99.90;;;;;;4192444;28;20470;-58
2020/12/12 04:20:03;;;;;;;21.50;10.10;;;4.10;99.90;;;;;;4191108;28;20482;-58
2020/12/12 04:22:05;;;;;;;20.27;8.77;;;4.20;99.90;;;;;;4192545;28;20476;-57
2020/12/12 04:24:06;;;;;;;19.57;9.03;;;4.10;99.90;;;;;;4195170;28;20482;-57
2020/12/12 04:26:08;;;;;;;18.73;8.73;;;4.10;99.90;;;;;;4195177;28;20962;-57
2020/12/12 04:28:10;;;;;;;17.50;8.20;;;4.10;99.90;;;;;;4195617;28;20494;-57
2020/12/12 04:30:11;;;;;;;20.03;9.20;;;4.10;99.90;;;;;;4189684;28;20492;-57
2020/12/12 04:32:13;;;;;;;18.93;8.50;;;4.10;99.90;;;;;;4190684;28;20479;-57
2020/12/12 04:34:15;;;;;;;18.47;8.37;;;4.10;99.90;;;;;;4190572;28;20490;-56
2020/12/12 04:36:20;;;;;;;17.23;8.20;;;4.10;99.90;;;;;;4192435;28;20856;-57
2020/12/12 04:38:21;;;;;;;19.67;8.57;;;4.20;99.90;;;;;;4192349;28;20479;-57
2020/12/12 04:40:23;;;;;;;19.93;8.83;;;4.10;99.90;;;;;;4190417;28;20863;-58
2020/12/12 04:42:26;;;;;;;19.43;8.97;;;4.10;99.90;;;;;;4188522;28;20477;-57
2020/12/12 04:44:28;;;;;;;19.07;8.50;;;4.10;99.90;;;;;;4190429;28;20490;-57
2020/12/12 04:46:30;;;;;;;20.93;8.80;;;4.10;99.90;;;;;;4188915;28;20961;-57
2020/12/12 04:48:32;;;;;;;18.93;8.83;;;4.10;99.90;;;;;;4187832;28;20483;-58
2020/12/12 04:50:35;;;;;;;17.93;8.00;;;4.10;99.90;;;;;;4191881;28;20488;-60
2020/12/12 04:52:40;;;;;;;17.80;8.70;;;4.10;99.90;;;;;;4191067;28;20488;-57
2020/12/12 04:54:46;;;;;;;18.73;8.23;;;4.10;99.90;;;;;;4194033;28;20478;-57
2020/12/12 04:56:49;;;;;;;15.70;7.30;;;4.10;99.90;;;;;;4190932;28;20502;-57
2020/12/12 04:58:51;;;;;;;19.00;8.67;;;4.20;99.90;;;;;;4189133;28;20608;-58
2020/12/12 05:00:54;;;;;;;20.03;8.47;;;4.10;99.90;;;;;;4189746;28;21038;-58
2020/12/12 05:02:55;;;;;;;19.33;8.73;;;4.10;99.90;;;;;;4191805;28;20488;-57
2020/12/12 05:04:57;;;;;;;19.30;8.70;;;4.10;99.90;;;;;;4192291;28;20487;-58
2020/12/12 05:06:59;;;;;;;18.17;8.70;;;4.10;99.90;;;;;;4190712;28;20978;-58
2020/12/12 05:09:00;;;;;;;17.40;8.27;;;4.10;99.90;;;;;;4189872;28;20991;-58
2020/12/12 05:11:02;;;;;;;19.10;8.57;;;4.10;99.90;;;;;;4187986;28;20476;-57
2020/12/12 05:13:13;;;;;;;19.03;8.70;;;4.10;99.90;;;;;;4188534;28;21185;-57
2020/12/12 05:15:15;;;;;;;20.93;9.10;;;4.10;99.90;;;;;;4188828;28;20470;-57
2020/12/12 05:17:16;;;;;;;21.30;9.67;;;4.10;99.90;;;;;;4191175;28;20528;-57
2020/12/12 05:19:17;;;;;;;17.13;8.00;;;4.10;99.90;;;;;;4189170;28;20494;-58
2020/12/12 05:21:20;;;;;;;18.33;7.83;;;4.10;99.90;;;;;;4187747;28;20472;-58
2020/12/12 05:23:23;;;;;;;16.13;7.93;;;4.20;99.90;;;;;;4188391;28;20480;-57
2020/12/12 05:25:24;;;;;;;14.30;6.90;;;4.10;99.90;;;;;;4187113;28;21037;-58
2020/12/12 05:27:26;;;;;;;14.37;6.93;;;4.10;99.90;;;;;;4188724;28;20507;-57
2020/12/12 05:29:27;;;;;;;14.77;7.07;;;4.10;99.90;;;;;;4191959;28;21305;-58
2020/12/12 05:31:29;;;;;;;14.07;6.60;;;4.20;99.90;;;;;;4189555;28;20476;-58
2020/12/12 05:33:30;;;;;;;14.87;7.37;;;4.10;99.90;;;;;;4189444;28;20471;-58
2020/12/12 05:35:32;;;;;;;15.20;7.23;;;4.20;99.90;;;;;;4189203;28;20515;-58
2020/12/12 05:37:39;;;;;;;14.80;6.90;;;4.10;99.90;;;;;;4188086;28;20463;-60
2020/12/12 05:39:40;;;;;;;16.37;7.40;;;4.10;99.90;;;;;;4193624;28;20914;-58
2020/12/12 05:41:43;;;;;;;14.73;6.87;;;4.20;99.90;;;;;;4193358;28;20479;-58
2020/12/12 05:43:45;;;;;;;15.80;6.67;;;4.20;99.90;;;;;;4189509;28;20468;-58
2020/12/12 05:45:46;;;;;;;15.83;6.57;;;4.10;99.90;;;;;;4189573;28;20476;-57
2020/12/12 05:47:48;;;;;;;17.10;7.10;;;4.10;99.90;;;;;;4188813;28;20495;-58
2020/12/12 05:49:49;;;;;;;14.73;6.77;;;4.10;99.90;;;;;;4191869;28;20491;-57
2020/12/12 05:51:52;;;;;;;14.80;6.97;;;4.10;99.90;;;;;;4192036;28;21281;-62
2020/12/12 05:53:55;;;;;;;12.67;6.17;;;4.10;99.90;;;;;;4188754;28;20983;-58
2020/12/12 05:55:57;;;;;;;13.60;6.30;;;4.20;99.90;;;;;;4187311;28;20538;-58
2020/12/12 05:57:59;;;;;;;14.93;6.77;;;4.10;99.90;;;;;;4189497;28;20462;-58
2020/12/12 06:00:04;;;;;;;13.20;6.27;;;4.20;99.90;;;;;;4190670;28;20496;-57
2020/12/12 06:02:06;;;;;;;13.57;6.20;;;4.10;99.90;;;;;;4191978;28;20478;-58
2020/12/12 06:04:10;;;;;;;14.67;6.63;;;4.10;99.90;;;;;;4190229;28;20468;-57
2020/12/12 06:06:13;;;;;;;13.00;6.30;;;4.20;99.90;;;;;;4189662;28;20489;-58
2020/12/12 06:08:23;;;;;;;12.50;6.03;;;4.20;99.90;;;;;;4189296;28;20483;-58
2020/12/12 06:10:28;;;;;;;13.37;6.07;;;4.20;99.90;;;;;;4188076;28;20484;-58
2020/12/12 06:12:30;;;;;;;16.13;7.23;;;4.10;99.90;;;;;;4187160;28;20484;-58
2020/12/12 06:14:37;;;;;;;14.53;6.13;;;4.20;99.90;;;;;;4187727;28;20478;-58
2020/12/12 06:16:38;;;;;;;13.23;6.73;;;4.20;99.90;;;;;;4191338;28;20467;-61
2020/12/12 06:18:51;;;;;;;13.23;6.37;;;4.20;99.90;;;;;;4194107;28;20820;-58
2020/12/12 06:20:53;;;;;;;15.90;6.77;;;4.20;99.90;;;;;;4188590;28;20464;-58
2020/12/12 06:22:55;;;;;;;14.07;5.67;;;4.20;99.90;;;;;;4188678;28;20504;-58
2020/12/12 06:25:00;;;;;;;12.67;5.97;;;4.10;99.90;;;;;;4187587;28;20475;-58
2020/12/12 06:27:06;;;;;;;14.47;6.57;;;4.20;99.90;;;;;;4187476;28;20852;-58
2020/12/12 06:29:09;;;;;;;15.10;6.63;;;4.20;99.90;;;;;;4189678;28;20483;-58
2020/12/12 06:31:11;;;;;;;13.60;6.50;;;4.20;99.90;;;;;;4191615;28;20463;-57
2020/12/12 06:33:12;;;;;;;12.20;5.73;;;4.20;99.90;;;;;;4188917;28;20477;-58
2020/12/12 06:35:15;;;;;;;12.30;6.27;;;4.20;99.90;;;;;;4189117;28;20483;-60
2020/12/12 06:37:28;;;;;;;13.40;6.40;;;4.20;99.90;;;;;;4187990;28;20467;-58
2020/12/12 06:39:29;;;;;;;13.83;6.80;;;4.20;99.90;;;;;;4187428;28;20467;-58
2020/12/12 06:41:34;;;;;;;14.63;6.40;;;4.20;99.90;;;;;;4189721;28;20484;-58
2020/12/12 06:43:37;;;;;;;13.40;6.47;;;4.20;99.90;;;;;;4188842;28;20471;-57
2020/12/12 06:45:38;;;;;;;13.27;6.07;;;4.20;99.90;;;;;;4189473;28;20483;-58
2020/12/12 06:47:41;;;;;;;12.93;5.90;;;4.20;99.90;;;;;;4189528;28;20472;-57
2020/12/12 06:49:42;;;;;;;14.50;6.97;;;4.20;99.90;;;;;;4188841;28;21031;-58
2020/12/12 06:51:43;;;;;;;15.57;7.13;;;4.20;99.90;;;;;;4187685;28;20471;-58
2020/12/12 06:53:45;;;;;;;15.07;6.90;;;4.20;99.90;;;;;;4188436;28;20479;-58
2020/12/12 06:56:05;;;;;;;15.90;6.70;;;4.20;99.90;;;;;;4187953;28;20472;-58
2020/12/12 06:58:22;;;;;;;15.07;6.93;;;4.20;99.90;;;;;;4189078;28;20478;-58
2020/12/12 07:00:31;;;;;;;16.03;7.47;;;4.20;99.90;;;;;;4190330;28;20495;-58
2020/12/12 07:02:33;;;;;;;16.67;7.57;;;4.20;99.90;;;;;;4189385;28;20549;-58
2020/12/12 07:04:35;;;;;;;18.47;7.80;;;4.20;99.90;;;;;;4187933;28;20466;-58
2020/12/12 07:06:36;;;;;;;21.73;8.50;;;4.20;99.90;;;;;;4186893;28;20469;-57
2020/12/12 07:08:49;;;;;;;20.90;8.23;;;4.20;99.90;;;;;;4191051;28;20477;-58
2020/12/12 07:10:50;;;;;;;17.40;8.07;;;4.20;99.90;;;;;;4189178;28;20574;-57
2020/12/12 07:12:52;;;;;;;17.67;8.33;;;4.20;99.90;;;;;;4188972;28;20464;-57
2020/12/12 07:14:54;;;;;;;18.53;8.20;;;4.20;99.90;;;;;;4188345;28;20468;-58
2020/12/12 07:16:58;;;;;;;18.53;7.93;;;4.20;99.90;;;;;;4190595;28;20472;-57
2020/12/12 07:18:59;;;;;;;19.30;8.40;;;4.20;99.90;;;;;;4190438;28;20495;-58
2020/12/12 07:21:00;;;;;;;19.43;8.00;;;4.20;99.90;;;;;;4189948;28;20933;-58
2020/12/12 07:23:03;;;;;;;17.60;7.47;;;4.20;99.90;;;;;;4192150;28;20472;-58
2020/12/12 07:25:06;;;;;;;20.13;7.77;;;4.20;99.90;;;;;;4190282;28;20498;-58
2020/12/12 07:27:07;;;;;;;13.97;6.87;;;4.20;99.90;;;;;;4193183;28;20481;-58
2020/12/12 07:29:09;;;;;;;16.67;7.00;;;4.30;99.90;;;;;;4196411;28;20915;-58
2020/12/12 07:31:10;;;;;;;18.50;7.43;;;4.20;99.90;;;;;;4193046;28;20468;-58
2020/12/12 07:33:12;;;;;;;16.60;7.30;;;4.30;99.90;;;;;;4190548;28;20965;-58
2020/12/12 07:35:13;;;;;;;17.67;8.00;;;4.30;99.90;;;;;;4190857;28;20471;-57
2020/12/12 07:37:15;;;;;;;16.30;7.40;;;4.30;99.90;;;;;;4192066;28;20486;-57
2020/12/12 07:39:16;;;;;;;19.57;7.93;;;4.20;99.90;;;;;;4189956;28;20505;-58
2020/12/12 07:41:18;;;;;;;18.93;8.50;;;4.20;99.90;;;;;;4191746;28;20950;-57
2020/12/12 07:43:19;;;;;;;17.27;7.73;;;4.20;99.90;;;;;;4195774;28;20471;-58
2020/12/12 07:45:32;;;;;;;20.90;8.07;;;4.30;99.90;;;;;;4190969;28;20472;-59
2020/12/12 07:47:33;;;;;;;19.27;8.30;;;4.30;99.90;;;;;;4191439;28;20477;-57
2020/12/12 07:49:37;;;;;;;18.97;8.43;;;4.30;99.90;;;;;;4189554;28;20490;-60
2020/12/12 07:51:38;;;;;;;18.07;7.87;;;4.30;99.90;;;;;;4187699;28;20468;-58
2020/12/12 07:53:40;;;;;;;18.57;8.33;;;4.30;99.90;;;;;;4192684;28;20510;-56
2020/12/12 07:55:43;;;;;;;18.07;7.80;;;4.30;99.90;;;;;;4191720;28;20475;-57
2020/12/12 07:57:49;;;;;;;17.67;8.17;;;4.30;99.90;;;;;;4193905;28;20479;-56
2020/12/12 07:59:51;;;;;;;16.60;7.33;;;4.40;99.90;;;;;;4188805;28;20498;-57
2020/12/12 08:01:52;;;;;;;17.63;8.77;;;4.40;99.90;;;;;;4188325;28;20515;-58
2020/12/12 08:03:53;;;;;;;17.53;8.13;;;4.40;99.90;;;;;;4186179;28;20521;-58
2020/12/12 08:06:06;;;;;;;19.67;8.97;;;4.40;99.90;;;;;;4191303;28;20478;-58
2020/12/12 08:08:09;;;;;;;20.07;9.20;;;4.40;99.90;;;;;;4192735;28;21026;-58
2020/12/12 08:10:11;;;;;;;18.63;8.33;;;4.40;99.90;;;;;;4190968;28;20556;-58
2020/12/12 08:12:21;;;;;;;16.50;7.93;;;4.40;99.90;;;;;;4190590;28;21096;-58
2020/12/12 08:14:24;;;;;;;17.50;7.90;;;4.40;99.90;;;;;;4192030;28;20526;-56
2020/12/12 08:16:28;;;;;;;16.70;8.80;;;4.40;99.90;;;;;;4192321;28;20467;-56
2020/12/12 08:18:30;;;;;;;19.07;8.30;;;4.40;99.90;;;;;;4191354;28;20489;-58
2020/12/12 08:20:31;;;;;;;17.13;7.93;;;4.50;99.90;;;;;;4192804;28;20993;-57
2020/12/12 08:22:36;;;;;;;19.30;9.30;;;4.50;99.90;;;;;;4191664;28;20460;-56
2020/12/12 08:24:38;;;;;;;18.07;8.73;;;4.50;99.90;;;;;;4193581;28;20494;-55
2020/12/12 08:26:39;;;;;;;19.97;8.57;;;4.50;99.90;;;;;;4192108;28;20467;-56
2020/12/12 08:28:41;;;;;;;17.97;7.83;;;4.50;99.90;;;;;;4190206;28;20487;-56
2020/12/12 08:30:42;;;;;;;18.70;8.70;;;4.60;99.90;;;;;;4190062;28;20483;-56
2020/12/12 08:32:46;;;;;;;18.47;9.10;;;4.60;99.90;;;;;;4190955;28;20939;-57
2020/12/12 08:34:48;;;;;;;17.47;8.50;;;4.60;99.90;;;;;;4191837;28;20464;-56
2020/12/12 08:36:49;;;;;;;17.10;8.33;;;4.60;99.90;;;;;;4190360;28;20852;-57
2020/12/12 08:38:55;;;;;;;17.70;8.10;;;4.60;99.90;;;;;;4190625;28;20487;-57
2020/12/12 08:40:56;;;;;;;17.50;7.93;;;4.60;99.90;;;;;;4190456;28;20455;-57
2020/12/12 08:42:59;;;;;;;17.07;8.00;;;4.70;99.90;;;;;;4189798;28;20473;-56
2020/12/12 08:45:14;;;;;;;17.67;8.30;;;4.70;99.90;;;;;;4189767;28;20464;-56
2020/12/12 08:47:16;;;;;;;21.17;8.97;;;4.60;99.90;;;;;;4190967;28;20474;-56
2020/12/12 08:49:17;;;;;;;17.73;8.50;;;4.70;99.90;;;;;;4191012;28;20470;-56
2020/12/12 08:51:24;;;;;;;16.60;8.10;;;4.70;99.90;;;;;;4191003;28;20590;-56
2020/12/12 08:53:29;;;;;;;17.07;7.73;;;4.70;99.90;;;;;;4188959;28;20478;-57
2020/12/12 08:55:32;;;;;;;18.97;8.77;;;4.70;99.90;;;;;;4190590;28;20529;-56
2020/12/12 08:57:33;;;;;;;15.33;7.43;;;4.70;99.90;;;;;;4190186;28;20476;-56
2020/12/12 08:59:34;;;;;;;17.57;8.00;;;4.70;99.90;;;;;;4189681;28;20495;-56
2020/12/12 09:01:38;;;;;;;18.87;8.80;;;4.70;99.90;;;;;;4190174;28;20472;-56
2020/12/12 09:03:57;;;;;;;15.37;7.23;;;4.70;99.90;;;;;;4189181;28;20533;-56
2020/12/12 09:06:06;;;;;;;16.87;8.33;;;4.80;99.90;;;;;;4190190;28;20483;-62
2020/12/12 09:08:16;;;;;;;18.87;8.43;;;4.80;99.90;;;;;;4191292;28;20984;-57
2020/12/12 09:10:17;;;;;;;15.03;7.30;;;4.70;99.90;;;;;;4191053;28;20492;-59
2020/12/12 09:12:20;;;;;;;17.13;7.90;;;4.80;99.90;;;;;;4192168;28;20491;-56
2020/12/12 09:14:22;;;;;;;14.73;6.97;;;4.80;99.90;;;;;;4190000;28;20507;-56
2020/12/12 09:16:25;;;;;;;16.93;7.73;;;4.80;99.90;;;;;;4189556;28;20503;-56
2020/12/12 09:18:26;;;;;;;15.10;7.43;;;4.90;99.90;;;;;;4189354;28;20563;-56
2020/12/12 09:20:27;;;;;;;16.73;6.63;;;4.90;99.90;;;;;;4190364;28;20472;-56
2020/12/12 09:22:28;;;;;;;16.90;7.40;;;4.90;99.90;;;;;;4190894;28;20471;-56
2020/12/12 09:24:30;;;;;;;16.60;7.27;;;4.90;99.90;;;;;;4190554;28;21108;-57
2020/12/12 09:26:31;;;;;;;19.27;9.03;;;4.90;99.90;;;;;;4190186;28;20480;-56
2020/12/12 09:28:34;;;;;;;19.53;8.67;;;4.90;99.90;;;;;;4192640;28;22445;-56
2020/12/12 09:30:35;;;;;;;16.40;7.80;;;4.90;99.90;;;;;;4191012;28;20487;-56
2020/12/12 09:32:37;;;;;;;19.57;8.07;;;4.90;99.90;;;;;;4189616;28;20884;-57
2020/12/12 09:34:38;;;;;;;18.83;8.17;;;4.90;99.90;;;;;;4191433;28;20472;-56
2020/12/12 09:36:39;;;;;;;17.90;8.43;;;4.90;99.90;;;;;;4188331;28;20482;-56
2020/12/12 09:38:41;;;;;;;18.07;8.53;;;4.90;99.90;;;;;;4190315;28;20468;-56
2020/12/12 09:40:43;;;;;;;19.50;8.50;;;5.00;99.90;;;;;;4188059;28;21368;-56
2020/12/12 09:42:44;;;;;;;21.37;9.27;;;5.00;99.90;;;;;;4188936;28;20471;-56
2020/12/12 09:44:46;;;;;;;23.13;9.00;;;5.00;99.90;;;;;;4189910;28;20471;-56
2020/12/12 09:46:47;;;;;;;23.37;10.57;;;5.00;99.90;;;;;;4189424;28;21015;-56
2020/12/12 09:48:49;;;;;;;19.63;9.57;;;5.00;99.90;;;;;;4190340;28;20471;-57
2020/12/12 09:50:51;;;;;;;19.37;9.03;;;5.00;99.90;;;;;;4191380;28;20483;-57
2020/12/12 09:52:52;;;;;;;19.87;8.77;;;5.00;99.90;;;;;;4188657;28;20475;-58
2020/12/12 09:54:53;;;;;;;21.47;9.73;;;5.00;99.90;;;;;;4189317;28;20485;-56
2020/12/12 09:56:55;;;;;;;24.47;10.13;;;5.00;99.90;;;;;;4192065;28;20564;-56
2020/12/12 09:58:57;;;;;;;18.37;8.70;;;5.00;99.90;;;;;;4190679;28;21048;-58
2020/12/12 10:00:59;;;;;;;22.30;9.87;;;5.00;99.90;;;;;;4190207;28;20499;-56
2020/12/12 10:03:01;;;;;;;21.47;9.77;;;5.10;99.90;;;;;;4190271;28;20474;-58
2020/12/12 10:05:02;;;;;;;21.13;9.30;;;5.10;99.90;;;;;;4190360;28;20471;-58
2020/12/12 10:07:03;;;;;;;23.33;10.40;;;5.10;99.90;;;;;;4188111;28;20475;-58
2020/12/12 10:09:04;;;;;;;26.37;11.90;;;5.10;99.90;;;;;;4189279;28;20468;-58
2020/12/12 10:11:07;;;;;;;24.13;10.63;;;5.10;99.90;;;;;;4188973;28;20835;-58
2020/12/12 10:13:08;;;;;;;25.60;11.23;;;5.10;99.90;;;;;;4190176;28;20515;-58
2020/12/12 10:15:09;;;;;;;22.63;11.17;;;5.10;99.90;;;;;;4189147;28;20485;-56
2020/12/12 10:17:12;;;;;;;22.33;9.83;;;5.10;99.90;;;;;;4189248;28;20488;-58
2020/12/12 10:19:13;;;;;;;25.73;11.40;;;5.10;99.90;;;;;;4188518;28;20483;-58
2020/12/12 10:21:14;;;;;;;26.47;12.20;;;5.10;99.90;;;;;;4189960;28;20479;-56
2020/12/12 10:23:16;;;;;;;23.97;11.10;;;5.00;99.90;;;;;;4188287;28;20463;-58
2020/12/12 10:25:17;;;;;;;23.80;10.83;;;5.10;99.90;;;;;;4189703;28;20479;-58
2020/12/12 10:27:20;;;;;;;25.30;11.20;;;5.10;99.90;;;;;;4188006;28;20487;-58
2020/12/12 10:29:21;;;;;;;21.63;10.80;;;5.10;99.90;;;;;;4189961;28;20788;-56
2020/12/12 10:31:23;;;;;;;24.77;10.30;;;5.20;99.90;;;;;;4189980;28;20506;-59
2020/12/12 10:33:25;;;;;;;25.50;11.70;;;5.20;99.90;;;;;;4188907;28;20469;-58
2020/12/12 10:35:27;;;;;;;24.47;11.40;;;5.20;99.90;;;;;;4188078;28;20483;-58